Time;durP1;ratioP1;P1;durP2;ratioP2;P2;SDS_P1;SDS_P2;PMS_P1;PMS_P2;Temp;Humidity;BMP_temperature;BMP_pressure;BME280_temperature;BME280_humidity;BME280_pressure;Samples;Min_cycle;Max_cycle;Signal;HPM_P1;HPM_P2
2023/07/06 00:02:00;;;;;;;11.32;4.20;;;16.80;99.90;;;;;;4881210;29;20029;-85
2023/07/06 00:04:45;;;;;;;11.35;4.20;;;16.80;99.90;;;;;;4880054;29;20025;-85
2023/07/06 00:07:11;;;;;;;13.40;4.07;;;16.90;99.90;;;;;;4881411;29;20029;-85
2023/07/06 00:09:50;;;;;;;8.25;3.97;;;16.90;99.90;;;;;;4929593;23;20028;-84
2023/07/06 00:12:29;;;;;;;5.78;3.47;;;16.90;99.90;;;;;;4881390;29;20057;-85
2023/07/06 00:14:55;;;;;;;11.77;3.92;;;16.90;99.90;;;;;;4880953;29;20029;-84
2023/07/06 00:17:32;;;;;;;15.43;4.43;;;16.90;99.90;;;;;;4886540;23;20055;-85
2023/07/06 00:20:10;;;;;;;10.65;3.55;;;16.80;99.90;;;;;;4881282;29;20029;-85
2023/07/06 00:22:48;;;;;;;9.70;3.58;;;16.40;99.90;;;;;;4881046;29;20029;-85
2023/07/06 00:25:33;;;;;;;10.95;4.45;;;16.80;99.90;;;;;;4887075;23;20112;-84
2023/07/06 00:28:01;;;;;;;18.48;4.20;;;15.80;99.90;;;;;;4886934;23;20056;-85
2023/07/06 00:33:18;;;;;;;10.52;3.70;;;16.90;99.90;;;;;;4881007;29;20552;-85
2023/07/06 00:35:56;;;;;;;9.30;3.60;;;16.40;99.90;;;;;;4880776;29;20091;-85
2023/07/06 00:38:44;;;;;;;11.20;3.42;;;16.90;99.90;;;;;;4879975;29;20120;-85
2023/07/06 00:41:32;;;;;;;16.05;4.07;;;16.90;99.90;;;;;;4887518;23;20061;-85
2023/07/06 00:44:53;;;;;;;13.77;3.60;;;16.80;99.90;;;;;;4880427;29;20489;-85
2023/07/06 00:47:38;;;;;;;8.60;3.08;;;16.30;99.90;;;;;;4886757;23;20044;-85
2023/07/06 00:50:20;;;;;;;7.82;3.70;;;16.80;99.90;;;;;;4880216;29;20096;-84
2023/07/06 00:53:04;;;;;;;7.18;3.13;;;16.90;99.90;;;;;;4894774;23;20035;-84
2023/07/06 00:55:41;;;;;;;9.13;2.97;;;17.00;99.90;;;;;;4887270;23;20049;-84
2023/07/06 00:58:22;;;;;;;9.68;3.35;;;16.90;99.90;;;;;;4880683;29;20036;-84
2023/07/06 01:01:07;;;;;;;8.82;3.33;;;16.90;99.90;;;;;;4892752;29;20017;-84
2023/07/06 01:03:52;;;;;;;10.82;3.08;;;17.00;99.90;;;;;;4899261;29;20100;-85
2023/07/06 01:06:34;;;;;;;7.93;3.65;;;17.00;99.90;;;;;;4883923;29;20041;-85
2023/07/06 01:09:15;;;;;;;8.23;3.00;;;16.90;99.90;;;;;;4880578;29;20037;-84
2023/07/06 01:11:41;;;;;;;6.68;2.78;;;17.00;99.90;;;;;;4880527;29;20081;-85
2023/07/06 01:14:13;;;;;;;11.07;3.03;;;16.90;99.90;;;;;;4886078;23;20351;-84
2023/07/06 01:17:04;;;;;;;7.60;3.33;;;16.90;99.90;;;;;;4880151;29;20115;-85
2023/07/06 01:19:55;;;;;;;8.15;3.00;;;16.90;99.90;;;;;;4879689;29;20025;-85
2023/07/06 01:23:11;;;;;;;9.40;3.17;;;16.60;99.90;;;;;;4880056;29;20493;-85
2023/07/06 01:32:32;;;;;;;15.45;3.47;;;16.90;99.90;;;;;;4879963;29;20097;-85
2023/07/06 01:35:47;;;;;;;10.02;3.45;;;16.80;99.90;;;;;;4878869;29;20033;-84
2023/07/06 01:38:27;;;;;;;9.25;3.35;;;16.70;99.90;;;;;;4879618;29;20036;-84
2023/07/06 01:41:16;;;;;;;;;;;16.70;99.90;;;;;;4879555;29;20044;-85
2023/07/06 01:43:42;;;;;;;9.18;3.30;;;16.70;99.90;;;;;;4879921;29;19964;-85
2023/07/06 01:46:17;;;;;;;7.95;3.38;;;16.70;99.90;;;;;;4879222;29;20100;-85
2023/07/06 01:49:05;;;;;;;11.30;3.40;;;16.80;99.90;;;;;;4878922;29;20478;-84
2023/07/06 01:51:51;;;;;;;10.02;3.08;;;17.60;99.90;;;;;;4879830;29;20041;-84
2023/07/06 01:54:21;;;;;;;9.80;3.70;;;16.80;99.90;;;;;;4879423;29;20081;-84
2023/07/06 01:56:57;;;;;;;9.07;3.60;;;16.80;99.90;;;;;;4878688;29;20037;-84
2023/07/06 01:59:27;;;;;;;9.70;3.30;;;16.80;99.90;;;;;;4885388;23;20450;-84
2023/07/06 02:01:59;;;;;;;11.73;3.85;;;16.80;99.90;;;;;;4878904;29;20053;-84
2023/07/06 02:04:27;;;;;;;8.82;3.00;;;16.70;99.90;;;;;;4879270;29;20072;-84
2023/07/06 02:07:13;;;;;;;13.40;3.90;;;16.70;99.90;;;;;;4879335;29;20359;-84
2023/07/06 02:09:59;;;;;;;8.32;3.83;;;16.80;99.90;;;;;;4878463;29;20060;-85
2023/07/06 02:12:41;;;;;;;6.53;3.70;;;16.80;99.90;;;;;;4879327;29;20084;-84
2023/07/06 02:15:27;;;;;;;12.18;4.15;;;16.80;99.90;;;;;;4878831;29;20473;-85
2023/07/06 02:17:55;;;;;;;14.73;3.92;;;16.70;99.90;;;;;;4891087;29;20064;-85
2023/07/06 02:20:41;;;;;;;11.25;3.88;;;16.00;99.90;;;;;;4897893;29;20030;-84
2023/07/06 02:23:08;;;;;;;8.93;3.83;;;16.70;99.90;;;;;;4897056;29;20035;-85
2023/07/06 02:25:37;;;;;;;14.68;3.50;;;16.70;99.90;;;;;;4897619;29;20033;-85
2023/07/06 02:28:03;;;;;;;14.63;4.05;;;16.70;99.90;;;;;;4897342;29;20029;-84
2023/07/06 02:30:44;;;;;;;12.00;4.13;;;16.70;99.90;;;;;;4896879;29;20366;-85
2023/07/06 02:33:10;;;;;;;7.97;3.50;;;16.60;99.90;;;;;;4897966;29;20028;-84
2023/07/06 02:35:35;;;;;;;12.90;4.22;;;16.60;99.90;;;;;;4897665;29;20033;-84
2023/07/06 02:38:20;;;;;;;11.88;3.90;;;16.60;99.90;;;;;;4896599;29;20489;-84
2023/07/06 02:41:04;;;;;;;11.57;3.92;;;16.50;99.90;;;;;;4897482;29;20068;-84
2023/07/06 02:43:48;;;;;;;14.48;4.10;;;16.50;99.90;;;;;;4897690;29;20020;-84
2023/07/06 02:46:29;;;;;;;20.45;4.63;;;16.50;99.90;;;;;;4909297;29;20009;-83
2023/07/06 02:49:07;;;;;;;14.00;4.60;;;16.60;99.90;;;;;;4916297;29;20032;-84
2023/07/06 02:51:51;;;;;;;12.23;4.40;;;16.60;99.90;;;;;;4901541;29;20096;-85
2023/07/06 02:54:17;;;;;;;13.40;3.83;;;16.60;99.90;;;;;;4884487;29;20475;-85
2023/07/06 02:56:57;;;;;;;10.52;4.30;;;16.60;99.90;;;;;;4860243;29;20041;-85
2023/07/06 02:59:35;;;;;;;11.75;4.00;;;16.60;99.90;;;;;;4859444;29;20494;-84
2023/07/06 03:04:27;;;;;;;10.30;4.80;;;16.60;99.90;;;;;;4889560;23;20063;-84
2023/07/06 03:06:55;;;;;;;15.35;4.78;;;16.60;99.90;;;;;;4885749;29;20037;-84
2023/07/06 03:09:29;;;;;;;15.48;4.75;;;16.50;99.90;;;;;;4878565;29;20108;-84
2023/07/06 03:12:10;;;;;;;11.07;3.33;;;16.50;99.90;;;;;;4896537;29;20662;-84
2023/07/06 03:14:36;;;;;;;14.52;4.40;;;16.50;99.90;;;;;;4889309;29;20063;-84
2023/07/06 03:17:05;;;;;;;15.45;4.45;;;16.50;99.90;;;;;;4884661;29;20060;-84
2023/07/06 03:19:31;;;;;;;11.20;4.30;;;16.50;99.90;;;;;;4885430;29;20438;-84
2023/07/06 03:21:58;;;;;;;12.65;4.40;;;16.40;99.90;;;;;;4881151;29;20108;-84
2023/07/06 03:24:26;;;;;;;11.98;4.53;;;16.50;99.90;;;;;;4877649;29;20065;-84
2023/07/06 03:26:52;;;;;;;12.48;4.85;;;16.50;99.90;;;;;;4884138;29;20051;-84
2023/07/06 03:29:17;;;;;;;15.90;4.38;;;16.50;99.90;;;;;;4881528;29;20037;-83
2023/07/06 03:31:45;;;;;;;8.38;4.03;;;16.50;99.90;;;;;;4884706;29;20097;-84
2023/07/06 03:34:11;;;;;;;9.10;4.28;;;16.50;99.90;;;;;;4880875;29;20033;-83
2023/07/06 03:36:38;;;;;;;13.77;4.60;;;16.60;99.90;;;;;;4889484;29;20029;-83
2023/07/06 03:39:17;;;;;;;10.35;4.10;;;16.60;99.90;;;;;;4881321;29;20212;-83
2023/07/06 03:41:43;;;;;;;14.27;4.85;;;16.60;99.90;;;;;;4885231;29;20398;-83
2023/07/06 03:44:22;;;;;;;14.90;5.03;;;16.60;99.90;;;;;;4887826;29;20080;-83
2023/07/06 03:46:47;;;;;;;37.10;9.23;;;16.60;99.90;;;;;;4888605;29;20047;-84
2023/07/06 03:49:13;;;;;;;16.02;4.70;;;16.60;99.90;;;;;;4881779;29;20041;-84
2023/07/06 03:51:56;;;;;;;12.98;4.57;;;16.60;99.90;;;;;;4893476;29;20118;-84
2023/07/06 03:54:22;;;;;;;14.05;4.68;;;16.50;99.90;;;;;;4878020;29;20029;-84
2023/07/06 03:56:57;;;;;;;18.90;5.40;;;16.60;99.90;;;;;;4897719;29;20044;-83
2023/07/06 03:59:23;;;;;;;15.60;4.63;;;16.60;99.90;;;;;;4897136;29;20040;-84
2023/07/06 04:02:05;;;;;;;17.10;5.53;;;16.60;99.90;;;;;;4875855;29;20025;-87
2023/07/06 04:04:46;;;;;;;20.13;4.65;;;16.60;99.90;;;;;;4892486;29;20049;-84
2023/07/06 04:07:12;;;;;;;14.77;5.28;;;16.60;99.90;;;;;;4882257;29;20421;-85
2023/07/06 04:09:57;;;;;;;17.15;5.82;;;16.60;99.90;;;;;;4888434;29;20032;-85
2023/07/06 04:12:23;;;;;;;13.38;5.35;;;16.60;99.90;;;;;;4892779;29;20036;-85
2023/07/06 04:14:48;;;;;;;16.85;5.32;;;16.60;99.90;;;;;;4885055;29;20036;-85
2023/07/06 04:17:36;;;;;;;17.05;5.45;;;16.60;99.90;;;;;;4878426;29;20021;-84
2023/07/06 04:20:20;;;;;;;17.75;5.25;;;16.60;99.90;;;;;;4884137;29;20033;-85
2023/07/06 04:22:55;;;;;;;18.48;6.25;;;16.60;99.90;;;;;;4883385;29;20041;-85
2023/07/06 04:25:31;;;;;;;15.98;5.53;;;16.60;99.90;;;;;;4881094;29;20064;-85
2023/07/06 04:28:10;;;;;;;15.88;5.63;;;16.50;99.90;;;;;;4877989;29;20116;-85
2023/07/06 04:30:44;;;;;;;16.30;6.20;;;16.50;99.90;;;;;;4879756;29;20532;-84
2023/07/06 04:33:19;;;;;;;18.60;6.25;;;16.50;99.90;;;;;;4912044;29;20021;-85
2023/07/06 04:36:02;;;;;;;15.02;5.82;;;16.50;99.90;;;;;;4908834;29;20044;-84
2023/07/06 04:38:36;;;;;;;19.60;6.55;;;16.50;99.90;;;;;;4883885;29;20032;-84
2023/07/06 04:41:02;;;;;;;20.15;6.20;;;16.50;99.90;;;;;;4888160;29;20072;-84
2023/07/06 04:43:45;;;;;;;18.38;6.50;;;16.50;99.90;;;;;;4879612;29;20056;-84
2023/07/06 04:46:11;;;;;;;19.77;6.53;;;16.60;99.90;;;;;;4887508;29;20036;-84
2023/07/06 04:48:38;;;;;;;22.38;7.45;;;16.50;99.90;;;;;;4880456;29;20040;-84
2023/07/06 04:51:03;;;;;;;22.25;6.63;;;16.50;99.90;;;;;;4883316;29;20051;-84
2023/07/06 04:53:32;;;;;;;24.88;7.53;;;16.50;99.90;;;;;;4895555;29;20025;-84
2023/07/06 04:55:59;;;;;;;26.08;8.07;;;16.50;99.90;;;;;;4909370;23;20057;-85
2023/07/06 04:58:25;;;;;;;19.13;7.40;;;16.50;99.90;;;;;;4897364;29;20426;-84
2023/07/06 05:00:51;;;;;;;20.75;7.93;;;16.50;99.90;;;;;;4892112;29;20043;-84
2023/07/06 05:03:16;;;;;;;22.08;8.40;;;16.50;99.90;;;;;;4883375;29;20021;-84
2023/07/06 05:05:45;;;;;;;16.15;7.30;;;16.60;99.90;;;;;;4891312;29;20028;-84
2023/07/06 05:08:19;;;;;;;20.13;8.32;;;16.50;99.90;;;;;;4888567;29;20073;-84
2023/07/06 05:10:49;;;;;;;25.80;9.45;;;16.50;99.90;;;;;;4888877;29;20036;-84
2023/07/06 05:13:15;;;;;;;23.08;8.48;;;16.60;99.90;;;;;;4891929;29;20084;-84
2023/07/06 05:15:41;;;;;;;28.25;10.05;;;16.60;99.90;;;;;;4887736;29;20057;-84
2023/07/06 05:18:29;;;;;;;26.40;11.23;;;16.70;99.90;;;;;;4894708;29;20055;-84
2023/07/06 05:21:10;;;;;;;24.48;10.73;;;16.60;99.90;;;;;;4886588;29;20036;-84
2023/07/06 05:23:53;;;;;;;22.73;10.00;;;16.70;99.90;;;;;;4883320;29;20033;-84
2023/07/06 05:26:31;;;;;;;30.27;13.18;;;16.70;99.90;;;;;;4885136;29;20085;-84
2023/07/06 05:29:15;;;;;;;31.17;11.98;;;16.70;99.90;;;;;;4880670;29;20044;-84
2023/07/06 05:31:49;;;;;;;24.98;12.35;;;16.70;99.90;;;;;;4883666;29;20032;-83
2023/07/06 05:34:15;;;;;;;33.35;14.38;;;16.70;99.90;;;;;;4880280;29;20025;-83
2023/07/06 05:37:04;;;;;;;30.08;13.68;;;16.70;99.90;;;;;;4886737;29;20040;-84
2023/07/06 05:39:29;;;;;;;38.20;12.90;;;16.00;99.90;;;;;;4880540;29;20116;-83
2023/07/06 05:41:55;;;;;;;33.38;14.43;;;16.70;99.90;;;;;;4881651;29;20172;-83
2023/07/06 05:44:39;;;;;;;37.38;15.27;;;16.70;99.90;;;;;;4888246;29;20028;-84
2023/07/06 05:47:07;;;;;;;34.95;15.13;;;16.70;99.90;;;;;;4883855;29;20278;-84
2023/07/06 05:49:44;;;;;;;36.13;14.20;;;16.70;99.90;;;;;;4882711;29;20442;-83
2023/07/06 05:52:10;;;;;;;28.23;12.93;;;16.70;99.90;;;;;;4884670;29;20034;-85
2023/07/06 05:54:51;;;;;;;30.42;14.02;;;16.70;99.90;;;;;;4865607;29;20040;-86
2023/07/06 05:57:32;;;;;;;30.45;15.02;;;16.60;99.90;;;;;;4868092;29;20045;-87
2023/07/06 05:59:58;;;;;;;32.13;14.77;;;16.60;99.90;;;;;;4867329;29;20077;-87
2023/07/06 06:02:26;;;;;;;30.95;14.75;;;16.70;99.90;;;;;;4867601;29;20036;-87
2023/07/06 06:04:52;;;;;;;22.75;12.68;;;16.70;99.90;;;;;;4872524;29;20521;-87
2023/07/06 06:07:19;;;;;;;25.80;13.25;;;16.80;99.90;;;;;;4868885;29;20060;-89
2023/07/06 06:09:47;;;;;;;27.77;13.43;;;16.80;99.90;;;;;;4872654;29;20123;-88
2023/07/06 06:12:18;;;;;;;29.58;13.65;;;16.80;99.90;;;;;;4874721;29;20029;-88
2023/07/06 06:14:45;;;;;;;33.00;15.05;;;16.70;99.90;;;;;;4866751;29;20057;-88
2023/07/06 06:17:12;;;;;;;39.10;13.73;;;16.60;99.90;;;;;;4876256;29;20010;-88
2023/07/06 06:19:38;;;;;;;23.50;11.57;;;16.70;99.90;;;;;;4892581;29;20030;-88
2023/07/06 06:22:06;;;;;;;30.65;13.00;;;16.70;99.90;;;;;;4874618;29;20419;-88
2023/07/06 06:24:32;;;;;;;26.67;13.27;;;16.70;99.90;;;;;;4868837;29;20025;-88
2023/07/06 06:27:00;;;;;;;26.60;12.23;;;16.70;99.90;;;;;;4871494;29;20081;-88
2023/07/06 06:29:27;;;;;;;24.42;11.18;;;16.80;99.90;;;;;;4874496;29;20029;-87
2023/07/06 06:31:53;;;;;;;28.13;11.32;;;16.80;99.90;;;;;;4876134;24;20499;-85
2023/07/06 06:34:18;;;;;;;17.83;10.77;;;16.80;99.90;;;;;;4861287;29;20030;-86
2023/07/06 06:36:44;;;;;;;21.65;12.18;;;16.90;99.90;;;;;;4860291;29;20033;-85
2023/07/06 06:39:10;;;;;;;21.40;10.48;;;17.00;99.90;;;;;;4878667;29;20025;-85
2023/07/06 06:41:38;;;;;;;26.75;11.55;;;17.00;99.90;;;;;;4872786;29;20040;-85
2023/07/06 06:44:05;;;;;;;24.88;11.75;;;17.00;99.90;;;;;;4859709;29;20042;-85
2023/07/06 06:46:31;;;;;;;26.02;10.95;;;16.90;99.90;;;;;;4864501;29;20041;-86
2023/07/06 06:48:57;;;;;;;23.00;11.35;;;16.90;99.90;;;;;;4869763;29;20124;-85
2023/07/06 06:51:23;;;;;;;22.08;11.43;;;16.80;99.90;;;;;;4895255;29;20071;-84
2023/07/06 06:53:49;;;;;;;27.27;12.70;;;16.90;99.90;;;;;;4894136;29;20025;-84
2023/07/06 06:56:15;;;;;;;24.73;13.27;;;17.00;99.90;;;;;;4885118;29;20033;-85
2023/07/06 06:58:41;;;;;;;26.67;11.90;;;17.00;99.90;;;;;;4895933;29;20048;-84
2023/07/06 07:01:11;;;;;;;26.40;11.55;;;17.00;99.90;;;;;;4892337;29;20025;-85
2023/07/06 07:03:36;;;;;;;24.70;11.63;;;17.00;99.90;;;;;;4896169;29;20036;-84
2023/07/06 07:06:14;;;;;;;22.13;11.57;;;17.00;99.90;;;;;;4891476;29;20021;-84
2023/07/06 07:08:49;;;;;;;26.58;12.65;;;17.00;99.90;;;;;;4887809;29;20084;-85
2023/07/06 07:11:19;;;;;;;21.80;10.32;;;17.00;99.90;;;;;;4892043;29;20044;-84
2023/07/06 07:13:46;;;;;;;26.25;10.32;;;17.00;99.90;;;;;;4881871;29;20021;-85
2023/07/06 07:16:11;;;;;;;19.25;9.68;;;17.00;99.90;;;;;;4894144;29;20128;-85
2023/07/06 07:18:38;;;;;;;22.17;10.20;;;17.10;99.90;;;;;;4887819;29;20074;-84
2023/07/06 07:21:05;;;;;;;15.32;8.82;;;17.10;99.90;;;;;;4888410;29;20044;-85
2023/07/06 07:23:49;;;;;;;16.63;10.20;;;17.10;99.90;;;;;;4900604;29;20028;-85
2023/07/06 07:26:25;;;;;;;17.35;9.70;;;17.20;99.90;;;;;;4892332;29;20040;-82
2023/07/06 07:28:51;;;;;;;15.52;9.50;;;16.80;99.90;;;;;;4883616;29;20742;-84
2023/07/06 07:31:19;;;;;;;18.55;10.52;;;17.30;99.90;;;;;;4896890;29;20457;-85
2023/07/06 07:33:49;;;;;;;24.08;10.82;;;17.30;99.90;;;;;;4881582;29;20081;-84
2023/07/06 07:36:17;;;;;;;24.48;10.68;;;17.20;99.90;;;;;;4884771;29;20120;-84
2023/07/06 07:38:44;;;;;;;17.48;8.63;;;17.30;99.90;;;;;;4892526;29;20533;-83
2023/07/06 07:41:10;;;;;;;14.20;9.15;;;17.30;99.90;;;;;;4886950;29;20033;-83
2023/07/06 07:43:41;;;;;;;15.30;9.30;;;17.40;99.90;;;;;;4884797;29;20059;-82
2023/07/06 07:46:09;;;;;;;19.88;9.95;;;17.40;99.90;;;;;;4886546;29;20029;-83
2023/07/06 07:48:38;;;;;;;18.13;9.40;;;17.50;99.90;;;;;;4884105;29;20032;-82
2023/07/06 07:51:07;;;;;;;15.35;8.55;;;17.40;99.90;;;;;;4880533;29;20037;-82
2023/07/06 07:53:36;;;;;;;15.88;7.88;;;17.50;99.90;;;;;;4879925;29;20032;-84
2023/07/06 07:56:04;;;;;;;18.02;8.00;;;17.50;99.90;;;;;;4872156;29;20032;-86
2023/07/06 07:58:34;;;;;;;18.67;8.80;;;17.50;99.90;;;;;;4866111;29;20379;-86
2023/07/06 08:01:03;;;;;;;15.52;8.05;;;17.50;99.90;;;;;;4861298;29;20033;-85
2023/07/06 08:03:29;;;;;;;12.10;8.65;;;17.50;99.90;;;;;;4895377;29;20029;-86
2023/07/06 08:06:07;;;;;;;14.77;8.45;;;17.60;99.90;;;;;;4894851;29;20112;-82
2023/07/06 08:08:34;;;;;;;22.25;9.65;;;17.60;99.90;;;;;;4882838;29;20037;-81
2023/07/06 08:11:03;;;;;;;21.10;9.18;;;17.70;99.90;;;;;;4881066;29;20060;-82
2023/07/06 08:13:29;;;;;;;23.95;10.40;;;17.70;99.90;;;;;;4890682;29;20112;-84
2023/07/06 08:15:55;;;;;;;17.65;8.82;;;17.70;99.90;;;;;;4899195;29;20085;-83
2023/07/06 08:18:24;;;;;;;21.98;9.10;;;17.80;99.90;;;;;;4898763;29;20073;-83
2023/07/06 08:20:53;;;;;;;21.58;9.60;;;17.80;99.90;;;;;;4900016;29;20100;-82
2023/07/06 08:23:20;;;;;;;17.77;8.23;;;17.80;99.90;;;;;;4899152;29;20025;-83
2023/07/06 08:25:48;;;;;;;16.58;7.97;;;17.70;99.90;;;;;;4899823;29;20545;-82
2023/07/06 08:28:14;;;;;;;16.25;8.23;;;17.80;99.90;;;;;;4899654;29;20108;-83
2023/07/06 08:30:42;;;;;;;16.80;8.43;;;17.90;99.90;;;;;;4898891;29;20147;-82
2023/07/06 08:33:11;;;;;;;15.02;6.85;;;17.80;99.90;;;;;;4898410;29;20025;-83
2023/07/06 08:35:41;;;;;;;10.68;6.97;;;17.80;99.90;;;;;;4897245;29;20067;-83
2023/07/06 08:38:07;;;;;;;16.40;6.70;;;17.80;99.90;;;;;;4897647;29;20556;-84
2023/07/06 08:40:35;;;;;;;32.92;7.88;;;17.80;99.90;;;;;;4898461;29;20033;-82
2023/07/06 08:43:04;;;;;;;17.30;7.72;;;17.90;99.90;;;;;;4897891;29;20111;-83
2023/07/06 08:45:40;;;;;;;22.65;8.50;;;17.90;99.90;;;;;;4898454;29;20024;-83
2023/07/06 08:48:14;;;;;;;16.42;6.88;;;17.90;99.90;;;;;;4881110;29;20036;-83
2023/07/06 08:50:44;;;;;;;14.38;5.60;;;17.90;99.90;;;;;;4880047;29;20553;-82
2023/07/06 08:53:14;;;;;;;10.40;4.75;;;17.90;99.90;;;;;;4880078;29;20490;-84
2023/07/06 08:55:57;;;;;;;11.60;5.25;;;18.00;99.90;;;;;;4883289;24;20033;-85
2023/07/06 09:01:17;;;;;;;10.52;5.45;;;18.10;99.90;;;;;;4880512;29;20040;-82
2023/07/06 09:03:48;;;;;;;10.90;4.18;;;18.10;99.90;;;;;;4877590;29;20033;-81
2023/07/06 09:06:23;;;;;;;9.02;3.63;;;18.10;99.90;;;;;;4878558;29;20021;-82
2023/07/06 09:08:53;;;;;;;9.25;3.72;;;18.10;99.90;;;;;;4878368;29;20052;-82
2023/07/06 09:11:22;;;;;;;6.22;3.22;;;18.20;99.90;;;;;;4879256;29;20060;-82
2023/07/06 09:13:55;;;;;;;7.30;4.03;;;18.20;99.90;;;;;;4878036;29;20125;-84
2023/07/06 09:16:25;;;;;;;8.13;3.13;;;18.30;99.90;;;;;;4872393;29;20049;-83
2023/07/06 09:18:52;;;;;;;6.45;4.43;;;18.30;99.90;;;;;;4859982;29;20038;-83
2023/07/06 09:21:25;;;;;;;11.88;4.05;;;18.30;99.90;;;;;;4861078;29;20036;-83
2023/07/06 09:23:56;;;;;;;11.52;4.20;;;18.40;99.90;;;;;;4860485;29;20029;-83
2023/07/06 09:26:45;;;;;;;;;;;;;;;;;;;;;
2023/07/06 09:29:20;;;;;;;8.85;4.00;;;18.40;99.90;;;;;;4858425;29;20041;-86
2023/07/06 09:31:47;;;;;;;11.57;3.97;;;18.40;99.90;;;;;;4859117;29;20057;-84
2023/07/06 09:34:32;;;;;;;9.55;4.45;;;18.30;99.90;;;;;;4860086;29;20049;-84
2023/07/06 09:36:59;;;;;;;12.35;4.13;;;18.30;99.90;;;;;;4859368;29;20402;-84
2023/07/06 09:39:25;;;;;;;6.93;3.63;;;18.20;99.90;;;;;;4859247;29;20576;-83
2023/07/06 09:41:52;;;;;;;7.50;3.53;;;18.20;99.90;;;;;;4859387;29;20121;-84
2023/07/06 09:44:26;;;;;;;9.68;2.97;;;18.10;99.90;;;;;;4862275;29;20051;-86
2023/07/06 09:46:55;;;;;;;5.38;3.05;;;18.10;99.90;;;;;;4863987;29;20105;-85
2023/07/06 09:49:21;;;;;;;10.10;3.15;;;18.10;99.90;;;;;;4863227;29;20502;-86
2023/07/06 09:51:57;;;;;;;8.05;3.88;;;18.10;99.90;;;;;;4883261;29;20049;-85
2023/07/06 09:54:43;;;;;;;8.15;3.58;;;18.10;99.90;;;;;;4871077;29;20030;-83
2023/07/06 09:57:12;;;;;;;6.18;3.53;;;18.10;99.90;;;;;;4858405;29;20116;-83
2023/07/06 09:59:45;;;;;;;9.45;3.47;;;18.10;99.90;;;;;;4859073;29;20204;-83
2023/07/06 10:02:32;;;;;;;12.07;3.65;;;18.20;99.90;;;;;;4859868;29;20033;-83
2023/07/06 10:04:57;;;;;;;10.80;3.67;;;18.10;99.90;;;;;;4860326;29;20436;-82
2023/07/06 10:08:02;;;;;;;7.00;3.72;;;18.10;99.90;;;;;;4860028;29;20029;-83
2023/07/06 10:10:33;;;;;;;11.05;3.80;;;18.10;99.90;;;;;;4859380;29;20045;-84
2023/07/06 10:13:15;;;;;;;9.65;3.45;;;18.10;99.90;;;;;;4860267;29;20490;-85
2023/07/06 10:15:51;;;;;;;16.00;3.55;;;18.10;99.90;;;;;;4880088;29;20029;-86
2023/07/06 10:18:35;;;;;;;8.57;3.42;;;18.10;99.90;;;;;;4890742;29;20428;-86
2023/07/06 10:21:16;;;;;;;6.97;3.50;;;18.10;99.90;;;;;;4882258;29;20029;-87
2023/07/06 10:24:02;;;;;;;10.40;2.72;;;18.10;99.90;;;;;;4884930;29;20096;-84
2023/07/06 10:26:32;;;;;;;4.97;2.45;;;18.10;99.90;;;;;;4881593;29;20105;-83
2023/07/06 10:29:05;;;;;;;4.88;2.65;;;18.10;99.90;;;;;;4881656;29;20238;-84
2023/07/06 10:31:54;;;;;;;4.22;1.88;;;18.10;99.90;;;;;;4880697;29;20091;-83
2023/07/06 10:34:59;;;;;;;6.40;1.95;;;18.10;99.90;;;;;;4882490;29;20029;-89
2023/07/06 10:37:28;;;;;;;2.63;1.75;;;18.10;99.90;;;;;;4888129;29;20024;-89
2023/07/06 10:46:58;;;;;;;5.78;1.80;;;17.70;99.90;;;;;;4881716;29;20051;-87
2023/07/06 10:50:19;;;;;;;3.92;2.08;;;18.20;99.90;;;;;;4885160;29;20068;-89
2023/07/06 10:53:36;;;;;;;5.65;1.80;;;17.50;99.90;;;;;;4849303;29;20032;-89
2023/07/06 10:56:01;;;;;;;12.52;1.85;;;18.20;99.90;;;;;;4852691;29;20025;-91
2023/07/06 10:58:45;;;;;;;2.22;1.45;;;18.20;99.90;;;;;;4882582;29;20048;-91
2023/07/06 11:01:12;;;;;;;3.13;1.20;;;18.30;99.90;;;;;;4885822;29;20041;-94
2023/07/06 11:03:38;;;;;;;3.50;1.25;;;18.40;99.90;;;;;;4887015;29;20029;-95
2023/07/06 11:06:07;;;;;;;5.63;1.50;;;18.40;99.90;;;;;;4895432;29;20070;-92
2023/07/06 11:09:09;;;;;;;2.35;1.00;;;18.40;99.90;;;;;;4884789;29;20485;-92
2023/07/06 11:11:55;;;;;;;12.95;1.15;;;18.50;99.90;;;;;;4870442;29;20037;-93
2023/07/06 11:14:31;;;;;;;2.42;1.00;;;18.50;99.90;;;;;;4856462;29;20033;-92
2023/07/06 11:17:04;;;;;;;3.42;1.35;;;18.60;99.90;;;;;;4862082;29;20033;-92
2023/07/06 11:20:03;;;;;;;2.08;1.00;;;18.60;99.90;;;;;;4881166;29;20029;-92
2023/07/06 11:22:50;;;;;;;5.38;1.15;;;18.70;99.90;;;;;;4862350;29;20467;-91
2023/07/06 11:25:16;;;;;;;2.70;1.02;;;18.60;99.90;;;;;;4862681;29;20036;-91
2023/07/06 11:27:50;;;;;;;1.95;1.30;;;18.70;99.90;;;;;;4871812;29;20135;-92
2023/07/06 11:30:42;;;;;;;5.57;1.02;;;18.70;99.50;;;;;;4875369;29;20073;-87
2023/07/06 11:33:34;;;;;;;2.85;0.95;;;18.70;98.40;;;;;;4868123;29;20410;-87
2023/07/06 11:36:21;;;;;;;1.00;0.80;;;18.70;98.10;;;;;;4904915;24;20090;-90
2023/07/06 11:46:44;;;;;;;1.85;0.98;;;18.90;99.20;;;;;;5718793;23;20065;-89
2023/07/06 11:49:40;;;;;;;1.33;1.00;;;18.90;99.50;;;;;;4873284;23;20558;-85
2023/07/06 11:52:13;;;;;;;1.30;1.17;;;19.00;99.10;;;;;;4862568;29;20037;-90
2023/07/06 11:55:28;;;;;;;3.10;0.90;;;19.00;99.90;;;;;;4863972;29;20033;-88
2023/07/06 11:58:07;;;;;;;2.72;0.90;;;19.00;99.10;;;;;;4875106;29;20037;-85
2023/07/06 12:00:48;;;;;;;1.95;1.30;;;19.00;98.00;;;;;;4896538;29;20108;-85
2023/07/06 12:03:15;;;;;;;1.50;1.05;;;19.00;98.30;;;;;;4889655;29;20029;-85
2023/07/06 12:05:49;;;;;;;1.27;0.70;;;19.10;98.30;;;;;;4866105;29;20033;-89
2023/07/06 12:08:27;;;;;;;1.48;1.02;;;19.10;97.90;;;;;;4870589;29;20029;-89
2023/07/06 12:11:02;;;;;;;1.15;0.73;;;19.00;97.90;;;;;;4895813;29;20074;-87
2023/07/06 12:13:36;;;;;;;3.42;1.10;;;19.00;98.80;;;;;;4904814;29;20017;-88
2023/07/06 12:16:09;;;;;;;3.92;1.00;;;19.10;98.10;;;;;;4889096;29;20097;-88
2023/07/06 12:18:36;;;;;;;1.77;1.10;;;19.10;98.20;;;;;;4865108;29;20060;-87
2023/07/06 12:21:38;;;;;;;1.73;1.05;;;19.20;98.10;;;;;;4880812;29;20036;-91
2023/07/06 12:24:16;;;;;;;3.92;1.50;;;19.20;99.00;;;;;;4833159;29;20045;-89
2023/07/06 12:27:01;;;;;;;1.58;1.00;;;19.20;98.00;;;;;;4863181;29;20029;-88
2023/07/06 12:29:48;;;;;;;2.22;1.30;;;19.30;97.90;;;;;;4861328;29;20082;-88
2023/07/06 12:32:19;;;;;;;2.33;1.40;;;20.00;97.80;;;;;;4861989;29;20082;-88
2023/07/06 12:35:04;;;;;;;2.03;0.95;;;19.30;97.10;;;;;;4862255;29;20100;-88
2023/07/06 12:37:30;;;;;;;2.55;1.25;;;19.30;97.70;;;;;;4863203;29;20049;-88
2023/07/06 12:40:19;;;;;;;1.85;0.93;;;19.40;97.30;;;;;;4862258;29;20029;-88
2023/07/06 12:43:05;;;;;;;2.15;1.35;;;19.40;97.00;;;;;;4862108;29;20177;-89
2023/07/06 12:45:32;;;;;;;1.27;1.00;;;19.40;97.00;;;;;;4862731;29;20093;-88
2023/07/06 12:48:18;;;;;;;3.97;1.30;;;19.40;97.10;;;;;;4863271;29;20066;-91
2023/07/06 12:50:46;;;;;;;3.03;1.20;;;19.00;97.20;;;;;;4861879;29;20038;-86
2023/07/06 12:53:33;;;;;;;1.10;1.00;;;19.40;97.90;;;;;;4862315;29;20108;-85
2023/07/06 12:56:13;;;;;;;1.10;1.00;;;19.40;97.80;;;;;;4861386;29;20487;-84
2023/07/06 12:58:45;;;;;;;1.73;0.93;;;19.40;97.60;;;;;;4862377;29;20049;-84
2023/07/06 13:01:11;;;;;;;2.95;1.20;;;19.50;97.80;;;;;;4862150;29;20033;-86
2023/07/06 13:03:56;;;;;;;1.45;1.33;;;19.50;96.70;;;;;;4862365;29;20036;-85
2023/07/06 13:06:26;;;;;;;3.53;1.23;;;19.50;96.90;;;;;;4864322;29;20427;-84
2023/07/06 13:08:56;;;;;;;1.88;1.00;;;19.60;97.30;;;;;;4874620;29;20526;-86
2023/07/06 13:11:23;;;;;;;1.55;1.23;;;19.60;96.80;;;;;;4878446;29;20500;-84
2023/07/06 13:13:53;;;;;;;4.35;1.10;;;19.60;96.80;;;;;;4878205;29;20033;-84
2023/07/06 13:16:19;;;;;;;;;;;19.70;97.00;;;;;;4876662;29;20037;-84
2023/07/06 13:18:46;;;;;;;2.67;1.35;;;19.70;96.40;;;;;;4869200;29;19911;-82
2023/07/06 13:21:25;;;;;;;19.33;2.08;;;19.80;97.10;;;;;;4859547;29;20116;-85
2023/07/06 13:23:55;;;;;;;1.85;1.10;;;19.80;96.80;;;;;;4859729;29;20114;-81
2023/07/06 13:26:39;;;;;;;4.40;1.10;;;19.80;96.60;;;;;;4873172;29;20055;-85
2023/07/06 13:29:34;;;;;;;2.25;1.20;;;19.90;97.40;;;;;;4880469;29;20029;-86
2023/07/06 13:32:24;;;;;;;2.20;1.40;;;19.80;97.50;;;;;;4880291;29;20108;-85
2023/07/06 13:34:50;;;;;;;;;;;19.10;96.60;;;;;;4880797;29;20032;-86
2023/07/06 13:37:46;;;;;;;2.10;1.38;;;19.80;96.80;;;;;;4879465;29;20288;-86
2023/07/06 13:40:37;;;;;;;1.27;1.13;;;20.20;96.30;;;;;;4879870;29;20033;-86
2023/07/06 13:43:04;;;;;;;4.22;1.30;;;19.80;96.50;;;;;;4879831;29;20036;-86
2023/07/06 13:45:45;;;;;;;2.78;1.20;;;19.70;97.00;;;;;;4878302;29;20102;-86
2023/07/06 13:48:14;;;;;;;2.47;1.00;;;19.70;97.20;;;;;;4877074;29;20136;-86
2023/07/06 13:51:03;;;;;;;2.80;1.20;;;19.80;97.10;;;;;;4877979;29;20405;-86